createdAt,value
2022-11-30T00:02:43.143Z,5.84
2022-11-30T00:05:47.410Z,5.95
2022-11-30T00:08:50.411Z,5.90
2022-11-30T00:11:55.763Z,5.85
2022-11-30T00:14:59.788Z,5.94
2022-11-30T00:18:02.520Z,5.98
2022-11-30T00:21:09.848Z,5.93
2022-11-30T00:24:12.668Z,5.88
2022-11-30T00:27:18.045Z,6.22
2022-11-30T00:30:20.934Z,6.07
2022-11-30T00:33:24.932Z,6.08
2022-11-30T00:36:28.901Z,6.01
2022-11-30T00:39:35.937Z,6.03
2022-11-30T00:42:41.286Z,5.95
2022-11-30T00:45:44.103Z,5.99
2022-11-30T00:48:48.371Z,5.83
2022-11-30T00:51:51.148Z,5.94
2022-11-30T00:54:53.811Z,6.02
2022-11-30T00:57:59.230Z,5.98
2022-11-30T01:01:02.156Z,6.01
2022-11-30T01:04:07.221Z,5.99
2022-11-30T01:07:10.029Z,5.87
2022-11-30T01:10:14.051Z,5.82
2022-11-30T01:13:18.120Z,5.82
2022-11-30T01:16:24.801Z,5.95
2022-11-30T01:19:28.875Z,5.99
2022-11-30T01:22:31.618Z,5.94
2022-11-30T01:25:35.522Z,6.04
2022-11-30T01:28:40.845Z,5.89
2022-11-30T01:31:44.707Z,5.96
2022-11-30T01:34:47.564Z,5.83
2022-11-30T01:41:15.560Z,5.81
2022-11-30T01:44:53.027Z,5.87
2022-11-30T01:47:58.338Z,5.82
2022-11-30T01:51:03.009Z,5.83
2022-11-30T01:54:09.635Z,5.88
2022-11-30T01:57:17.574Z,5.81
2022-11-30T02:00:22.276Z,5.95
2022-11-30T02:03:33.518Z,5.81
2022-11-30T02:06:37.458Z,5.75
2022-11-30T02:09:44.028Z,5.81
2022-11-30T02:13:04.831Z,5.74
2022-11-30T02:16:19.620Z,5.78
2022-11-30T02:19:49.772Z,5.79
2022-11-30T02:23:10.367Z,5.77
2022-11-30T02:26:30.070Z,5.75
2022-11-30T02:29:40.065Z,5.76
2022-11-30T02:32:49.235Z,5.72
2022-11-30T02:35:56.624Z,5.87
2022-11-30T02:39:00.897Z,5.78
2022-11-30T02:42:04.777Z,5.70
2022-11-30T02:45:10.500Z,5.74
2022-11-30T02:48:18.330Z,5.74
2022-11-30T02:51:27.394Z,5.81
2022-11-30T02:54:30.161Z,5.91
2022-11-30T02:57:34.269Z,5.77
2022-11-30T03:00:39.609Z,5.81
2022-11-30T03:03:42.299Z,5.83
2022-11-30T03:06:46.190Z,5.91
2022-11-30T03:09:48.918Z,5.72
2022-11-30T03:12:52.790Z,6.06
2022-11-30T03:15:56.865Z,5.85
2022-11-30T03:19:01.463Z,5.75
2022-11-30T03:22:04.335Z,5.63
2022-11-30T03:25:08.930Z,5.76
2022-11-30T03:28:11.654Z,5.78
2022-11-30T03:31:16.982Z,5.80
2022-11-30T03:34:20.990Z,5.78
2022-11-30T03:37:23.718Z,5.81
2022-11-30T03:40:27.608Z,5.82
2022-11-30T03:43:30.863Z,5.79
2022-11-30T03:46:36.216Z,5.88
2022-11-30T03:49:38.951Z,5.77
2022-11-30T03:52:42.823Z,5.80
2022-11-30T03:55:45.592Z,5.68
2022-11-30T03:58:49.473Z,5.75
2022-11-30T04:01:54.832Z,5.73
2022-11-30T04:04:57.576Z,5.69
2022-11-30T04:08:01.516Z,5.60
2022-11-30T04:11:05.209Z,5.73
2022-11-30T04:14:09.203Z,5.76
2022-11-30T04:17:14.451Z,5.73
2022-11-30T04:20:17.270Z,5.79
2022-11-30T04:26:43.573Z,5.70
2022-11-30T04:29:47.555Z,5.84
2022-11-30T04:32:51.629Z,5.63
2022-11-30T04:35:57.459Z,5.63
2022-11-30T04:39:01.310Z,5.79
2022-11-30T04:42:04.107Z,5.75
2022-11-30T04:45:07.695Z,5.64
2022-11-30T04:48:12.259Z,5.73
2022-11-30T04:51:16.126Z,5.66
2022-11-30T04:54:18.887Z,5.81
2022-11-30T04:57:22.804Z,5.70
2022-11-30T05:00:25.936Z,5.66
2022-11-30T05:03:31.191Z,5.72
2022-11-30T05:06:35.041Z,5.75
2022-11-30T05:09:37.788Z,5.62
2022-11-30T05:12:40.484Z,5.54
2022-11-30T05:15:43.188Z,5.64
2022-11-30T05:18:47.375Z,5.60
2022-11-30T05:21:51.343Z,5.67
2022-11-30T05:24:54.034Z,5.53
2022-11-30T05:27:57.897Z,5.65
2022-11-30T05:31:04.898Z,5.65
2022-11-30T05:34:10.211Z,5.48
2022-11-30T05:37:12.871Z,5.69
2022-11-30T05:40:15.855Z,5.68
2022-11-30T05:43:19.549Z,5.69
2022-11-30T05:46:23.468Z,5.70
2022-11-30T05:49:27.598Z,5.56
2022-11-30T05:52:31.488Z,5.53
2022-11-30T05:55:34.658Z,5.53
2022-11-30T05:58:40.329Z,5.70
2022-11-30T06:01:44.328Z,5.62
2022-11-30T06:04:48.744Z,5.56
2022-11-30T06:07:53.028Z,5.56
2022-11-30T06:10:55.726Z,5.56
2022-11-30T06:13:59.669Z,5.52
2022-11-30T06:17:03.638Z,5.61
2022-11-30T06:20:09.088Z,5.69
2022-11-30T06:23:11.808Z,5.43
2022-11-30T06:26:14.505Z,5.42
2022-11-30T06:29:20.035Z,5.51
2022-11-30T06:32:22.720Z,5.53
2022-11-30T06:35:28.007Z,5.52
2022-11-30T06:38:30.874Z,5.68
2022-11-30T06:41:34.733Z,5.60
2022-11-30T06:44:38.756Z,5.53
2022-11-30T06:47:41.601Z,5.65
2022-11-30T06:50:50.027Z,5.61
2022-11-30T06:53:53.031Z,5.59
2022-11-30T06:56:57.795Z,5.62
2022-11-30T07:00:00.493Z,5.60
2022-11-30T07:06:26.187Z,5.53
2022-11-30T07:09:30.044Z,5.54
2022-11-30T07:12:35.678Z,5.61
2022-11-30T07:15:39.719Z,5.58
2022-11-30T07:18:42.432Z,5.52
2022-11-30T07:21:47.731Z,5.51
2022-11-30T07:25:08.164Z,5.60
2022-11-30T07:28:12.045Z,5.63
2022-11-30T07:31:16.846Z,5.62
2022-11-30T07:34:21.312Z,5.63
2022-11-30T07:37:26.593Z,5.57
2022-11-30T07:40:30.481Z,5.60
2022-11-30T07:43:33.566Z,5.66
2022-11-30T07:46:37.547Z,5.92
2022-11-30T07:49:40.262Z,5.75
2022-11-30T07:52:45.470Z,5.67
2022-11-30T07:55:55.485Z,5.69
2022-11-30T07:59:01.801Z,5.70
2022-11-30T08:02:04.662Z,5.67
2022-11-30T08:05:11.204Z,5.74
2022-11-30T08:08:15.378Z,5.62
2022-11-30T08:11:19.919Z,5.77
2022-11-30T08:14:23.825Z,5.75
2022-11-30T08:17:26.586Z,5.71
2022-11-30T08:20:30.519Z,5.76
2022-11-30T08:23:36.696Z,5.89
2022-11-30T08:26:40.678Z,5.84
2022-11-30T08:29:43.340Z,5.89
2022-11-30T08:32:47.386Z,5.90
2022-11-30T08:35:50.119Z,5.99
2022-11-30T08:38:55.546Z,6.08
2022-11-30T08:41:58.420Z,6.27
2022-11-30T08:45:01.461Z,6.19
2022-11-30T08:48:06.183Z,5.99
2022-11-30T08:51:12.404Z,6.02
2022-11-30T08:54:16.494Z,6.10
2022-11-30T08:57:22.698Z,6.11
2022-11-30T09:00:25.470Z,6.14
2022-11-30T09:03:29.428Z,6.13
2022-11-30T09:06:32.217Z,6.15
2022-11-30T09:09:36.844Z,6.23
2022-11-30T09:12:42.402Z,6.33
2022-11-30T09:15:45.179Z,6.27
2022-11-30T09:18:49.895Z,6.28
2022-11-30T09:21:52.971Z,6.20
2022-11-30T09:24:58.435Z,6.41
2022-11-30T09:28:01.148Z,6.39
2022-11-30T09:31:06.871Z,6.27
2022-11-30T09:34:12.717Z,6.34
2022-11-30T09:37:15.475Z,6.48
2022-11-30T09:40:22.520Z,6.58
2022-11-30T09:43:37.834Z,6.44
2022-11-30T09:46:43.751Z,6.41
2022-11-30T09:49:48.558Z,6.62
2022-11-30T09:52:55.797Z,6.55
2022-11-30T09:56:02.726Z,6.64
2022-11-30T09:59:13.976Z,6.47
2022-11-30T10:02:18.820Z,6.53
2022-11-30T10:05:25.344Z,6.65
2022-11-30T10:08:50.603Z,6.70
2022-11-30T10:12:03.661Z,6.70
2022-11-30T10:15:19.716Z,6.84
2022-11-30T10:18:28.767Z,6.82
2022-11-30T10:21:46.089Z,6.90
2022-11-30T10:25:11.643Z,6.89
2022-11-30T10:28:45.647Z,7.01
2022-11-30T10:31:45.647Z,7.02
2022-11-30T10:34:52.686Z,6.99
2022-11-30T10:37:58.465Z,6.96
2022-11-30T10:41:06.575Z,6.94
2022-11-30T10:44:19.481Z,6.85
2022-11-30T10:47:28.484Z,6.83
2022-11-30T10:50:32.621Z,6.94
2022-11-30T10:53:36.666Z,6.96
2022-11-30T10:56:39.408Z,7.01
2022-11-30T10:59:48.239Z,6.85
2022-11-30T11:02:53.454Z,6.89
2022-11-30T11:06:09.042Z,7.06
2022-11-30T11:09:30.033Z,7.07
2022-11-30T11:12:34.191Z,7.13
2022-11-30T11:15:38.738Z,7.01
2022-11-30T11:18:53.770Z,7.06
2022-11-30T11:21:57.771Z,6.97
2022-11-30T11:25:12.663Z,7.04
2022-11-30T11:28:20.193Z,6.91
2022-11-30T11:31:37.555Z,6.91
2022-11-30T11:34:40.377Z,7.00
2022-11-30T11:37:53.373Z,6.98
2022-11-30T11:40:58.668Z,7.24
2022-11-30T11:44:04.604Z,7.24
2022-11-30T11:47:10.258Z,7.08
2022-11-30T11:51:05.008Z,7.00
2022-11-30T11:53:57.777Z,7.22
2022-11-30T11:57:00.717Z,7.18
2022-11-30T12:00:12.495Z,7.22
2022-11-30T12:03:27.984Z,7.01
2022-11-30T12:06:35.245Z,6.82
2022-11-30T12:09:46.620Z,6.96
2022-11-30T12:12:54.690Z,7.10
2022-11-30T12:16:11.026Z,6.93
2022-11-30T12:19:21.471Z,6.96
2022-11-30T12:22:50.731Z,6.93
2022-11-30T12:26:06.450Z,6.81
2022-11-30T12:29:26.436Z,6.68
2022-11-30T12:32:40.802Z,6.71
2022-11-30T12:36:04.411Z,6.53
2022-11-30T12:39:10.818Z,6.54
2022-11-30T12:42:21.878Z,6.54
2022-11-30T12:45:30.577Z,6.60
2022-11-30T12:48:41.835Z,6.62
2022-11-30T12:51:54.246Z,6.55
2022-11-30T12:55:05.019Z,6.52
2022-11-30T12:58:18.375Z,6.58
2022-11-30T13:01:35.392Z,6.52
2022-11-30T13:04:43.031Z,6.54
2022-11-30T13:07:52.395Z,6.44
2022-11-30T13:14:24.029Z,6.26
2022-11-30T13:17:28.923Z,6.41
2022-11-30T13:20:38.737Z,6.27
2022-11-30T13:23:50.120Z,6.21
2022-11-30T13:26:58.796Z,6.25
2022-11-30T13:30:21.553Z,6.22
2022-11-30T13:33:48.112Z,6.25
2022-11-30T13:36:51.011Z,6.33
2022-11-30T13:39:56.750Z,6.14
2022-11-30T13:42:59.670Z,6.22
2022-11-30T13:46:20.016Z,6.44
2022-11-30T13:49:27.325Z,6.33
2022-11-30T13:53:06.285Z,6.35
2022-11-30T13:56:35.607Z,6.17
2022-11-30T13:59:47.782Z,6.03
2022-11-30T14:02:54.174Z,5.81
2022-11-30T14:09:57.031Z,5.72
2022-11-30T14:13:03.720Z,5.58
2022-11-30T14:16:21.748Z,5.35
2022-11-30T14:19:25.897Z,5.48
2022-11-30T14:22:30.784Z,5.38
2022-11-30T14:25:36.715Z,5.34
2022-11-30T14:28:48.189Z,5.06
2022-11-30T14:31:58.035Z,5.18
2022-11-30T14:35:10.317Z,5.07
2022-11-30T14:38:26.265Z,5.11
2022-11-30T14:41:32.311Z,4.95
2022-11-30T14:44:40.263Z,4.72
2022-11-30T14:47:48.114Z,4.75
2022-11-30T14:50:54.793Z,4.39
2022-11-30T14:54:06.329Z,4.20
2022-11-30T14:57:22.580Z,4.29
2022-11-30T15:00:27.098Z,4.22
2022-11-30T15:03:38.922Z,4.13
2022-11-30T15:06:44.364Z,3.89
2022-11-30T15:09:50.967Z,3.82
2022-11-30T15:12:55.178Z,3.72
2022-11-30T15:15:59.573Z,3.67
2022-11-30T15:19:18.963Z,3.83
2022-11-30T15:22:23.950Z,3.89
2022-11-30T15:25:35.355Z,3.63
2022-11-30T15:28:43.676Z,3.59
2022-11-30T15:35:30.737Z,3.53
2022-11-30T15:38:52.955Z,3.43
2022-11-30T15:41:58.506Z,3.20
2022-11-30T15:45:22.559Z,3.25
2022-11-30T15:48:33.462Z,3.12
2022-11-30T15:51:41.864Z,3.04
2022-11-30T15:54:48.228Z,3.10
2022-11-30T15:58:03.621Z,3.23
2022-11-30T16:01:12.171Z,3.28
2022-11-30T16:04:17.646Z,3.29
2022-11-30T16:07:20.594Z,3.36
2022-11-30T16:10:26.471Z,3.37
2022-11-30T16:13:32.032Z,3.26
2022-11-30T16:16:36.088Z,3.23
2022-11-30T16:19:40.203Z,3.35
2022-11-30T16:22:44.682Z,3.35
2022-11-30T16:25:49.017Z,3.23
2022-11-30T16:28:52.969Z,3.36
2022-11-30T16:31:55.756Z,3.33
2022-11-30T16:35:00.290Z,3.25
2022-11-30T16:38:03.980Z,3.18
2022-11-30T16:41:15.584Z,3.30
2022-11-30T16:44:19.622Z,3.31
2022-11-30T16:47:22.388Z,3.32
2022-11-30T16:50:27.719Z,3.24
2022-11-30T16:53:31.743Z,3.29
2022-11-30T16:56:35.704Z,3.28
2022-11-30T16:59:38.417Z,3.24
2022-11-30T17:02:47.102Z,3.24
2022-11-30T17:05:51.254Z,3.10
2022-11-30T17:08:54.201Z,3.16
2022-11-30T17:11:58.349Z,3.10
2022-11-30T17:15:01.115Z,3.03
2022-11-30T17:18:05.139Z,3.25
2022-11-30T17:21:14.231Z,3.22
2022-11-30T17:24:18.323Z,3.20
2022-11-30T17:27:22.282Z,3.16
2022-11-30T17:30:26.451Z,3.18
2022-11-30T17:33:32.465Z,3.21
2022-11-30T17:36:37.794Z,3.26
2022-11-30T17:39:44.032Z,3.24
2022-11-30T17:42:46.699Z,3.25
2022-11-30T17:45:49.666Z,3.25
2022-11-30T17:48:53.995Z,3.28
2022-11-30T17:51:58.056Z,3.41
2022-11-30T17:55:02.042Z,3.20
2022-11-30T17:58:04.734Z,3.21
2022-11-30T18:01:08.309Z,3.06
2022-11-30T18:04:11.131Z,3.07
2022-11-30T18:07:16.449Z,3.23
2022-11-30T18:10:20.321Z,3.05
2022-11-30T18:13:24.346Z,3.14
2022-11-30T18:16:30.418Z,3.27
2022-11-30T18:22:56.420Z,3.19
2022-11-30T18:25:59.127Z,3.38
2022-11-30T18:29:04.058Z,3.21
2022-11-30T18:32:09.244Z,3.14
2022-11-30T18:35:12.211Z,3.04
2022-11-30T18:38:16.698Z,3.22
2022-11-30T18:41:19.469Z,3.27
2022-11-30T18:44:23.546Z,3.16
2022-11-30T18:47:26.263Z,3.14
2022-11-30T18:50:31.070Z,3.25
2022-11-30T18:53:35.200Z,3.44
2022-11-30T18:56:40.803Z,3.34
2022-11-30T18:59:43.490Z,3.18
2022-11-30T19:02:48.474Z,3.13
2022-11-30T19:05:51.248Z,2.97
2022-11-30T19:08:56.687Z,3.05
2022-11-30T19:12:00.677Z,3.01
2022-11-30T19:15:04.761Z,3.15
2022-11-30T19:18:08.064Z,3.03
2022-11-30T19:21:13.599Z,3.07
2022-11-30T19:24:18.025Z,2.99
2022-11-30T19:27:21.984Z,3.04
2022-11-30T19:30:26.130Z,2.99
2022-11-30T19:33:30.138Z,3.29
2022-11-30T19:36:34.101Z,3.12
2022-11-30T19:39:38.131Z,2.97
2022-11-30T19:42:42.082Z,3.00
2022-11-30T19:45:44.798Z,2.97
2022-11-30T19:48:48.773Z,2.98
2022-11-30T19:51:51.460Z,3.19
2022-11-30T19:54:56.780Z,3.06
2022-11-30T19:57:59.469Z,3.13
2022-11-30T20:01:03.802Z,3.28
2022-11-30T20:04:06.692Z,3.04
2022-11-30T20:07:09.540Z,3.14
2022-11-30T20:10:14.453Z,3.08
2022-11-30T20:13:18.153Z,3.26
2022-11-30T20:16:23.427Z,3.21
2022-11-30T20:19:26.247Z,3.18
2022-11-30T20:22:30.499Z,3.25
2022-11-30T20:25:34.974Z,3.12
2022-11-30T20:28:41.967Z,3.10
2022-11-30T20:31:47.091Z,3.24
2022-11-30T20:34:50.005Z,3.19
2022-11-30T20:37:53.052Z,3.13
2022-11-30T20:40:57.396Z,3.13
2022-11-30T20:47:21.783Z,3.23
2022-11-30T20:50:25.902Z,3.19
2022-11-30T20:53:29.826Z,3.10
2022-11-30T20:56:35.184Z,3.10
2022-11-30T20:59:40.699Z,3.15
2022-11-30T21:02:44.686Z,3.32
2022-11-30T21:05:47.406Z,3.32
2022-11-30T21:08:51.396Z,3.09
2022-11-30T21:11:55.670Z,3.15
2022-11-30T21:14:59.829Z,3.11
2022-11-30T21:18:02.553Z,3.10
2022-11-30T21:21:08.257Z,3.10
2022-11-30T21:24:13.098Z,3.08
2022-11-30T21:27:18.490Z,3.09
2022-11-30T21:30:21.342Z,3.19
2022-11-30T21:33:25.352Z,3.16
2022-11-30T21:36:29.110Z,3.08
2022-11-30T21:39:33.709Z,3.17
2022-11-30T21:42:37.799Z,3.26
2022-11-30T21:45:41.713Z,3.21
2022-11-30T21:52:07.770Z,3.18
2022-11-30T21:55:12.097Z,3.11
2022-11-30T21:58:17.426Z,3.05
2022-11-30T22:01:22.372Z,3.10
2022-11-30T22:04:26.381Z,3.33
2022-11-30T22:07:32.518Z,2.99
2022-11-30T22:10:36.504Z,2.99
2022-11-30T22:13:42.294Z,3.07
2022-11-30T22:16:45.577Z,3.09
2022-11-30T22:19:49.726Z,3.06
2022-11-30T22:22:52.576Z,2.99
2022-11-30T22:25:56.525Z,3.04
2022-11-30T22:29:02.678Z,3.09
2022-11-30T22:32:07.190Z,3.04
2022-11-30T22:35:10.335Z,3.00
2022-11-30T22:38:16.023Z,3.08
2022-11-30T22:41:20.057Z,3.00
2022-11-30T22:44:25.479Z,3.03
2022-11-30T22:50:50.950Z,2.83
2022-11-30T22:53:54.558Z,2.76
2022-11-30T22:56:58.565Z,2.78
2022-11-30T23:00:02.584Z,2.96
2022-11-30T23:03:06.678Z,2.92
2022-11-30T23:06:10.809Z,3.03
2022-11-30T23:09:17.032Z,2.93
2022-11-30T23:12:43.340Z,2.86
2022-11-30T23:15:45.060Z,2.83
2022-11-30T23:18:50.873Z,2.89
2022-11-30T23:21:54.900Z,2.81
2022-11-30T23:24:57.583Z,2.83
2022-11-30T23:28:01.565Z,2.84
2022-11-30T23:31:07.158Z,2.88
2022-11-30T23:34:12.012Z,2.96
2022-11-30T23:37:15.997Z,3.00
2022-11-30T23:40:20.246Z,3.02
2022-11-30T23:43:24.198Z,3.07
2022-11-30T23:46:29.589Z,3.01
2022-11-30T23:49:32.589Z,2.94
2022-11-30T23:52:36.736Z,3.03
2022-11-30T23:55:39.433Z,3.23
2022-11-30T23:58:43.811Z,2.93
